sensor_id;sensor_type;location;lat;lon;timestamp;pressure;altitude;pressure_sealevel;temperature;humidity
61394;BME280;48555;50.952;-0.120;2023-07-31T00:01:01;100552.84;;;19.44;87.89
61394;BME280;48555;50.952;-0.120;2023-07-31T00:03:26;100559.69;;;19.39;88.49
61394;BME280;48555;50.952;-0.120;2023-07-31T00:05:52;100542.44;;;19.35;88.67
61394;BME280;48555;50.952;-0.120;2023-07-31T00:08:17;100552.34;;;19.41;88.92
61394;BME280;48555;50.952;-0.120;2023-07-31T00:10:42;100542.75;;;19.40;89.12
61394;BME280;48555;50.952;-0.120;2023-07-31T00:13:08;100543.41;;;19.42;89.17
61394;BME280;48555;50.952;-0.120;2023-07-31T00:15:33;100542.91;;;19.38;89.71
61394;BME280;48555;50.952;-0.120;2023-07-31T00:17:58;100552.91;;;19.28;90.64
61394;BME280;48555;50.952;-0.120;2023-07-31T00:20:24;100542.63;;;19.33;90.11
61394;BME280;48555;50.952;-0.120;2023-07-31T00:22:49;100537.97;;;19.35;90.33
61394;BME280;48555;50.952;-0.120;2023-07-31T00:25:15;100534.34;;;19.28;90.94
61394;BME280;48555;50.952;-0.120;2023-07-31T00:27:40;100540.00;;;19.25;91.38
61394;BME280;48555;50.952;-0.120;2023-07-31T00:30:10;100534.22;;;19.21;91.82
61394;BME280;48555;50.952;-0.120;2023-07-31T00:32:35;100533.69;;;19.26;91.71
61394;BME280;48555;50.952;-0.120;2023-07-31T00:35:01;100535.84;;;19.31;91.24
61394;BME280;48555;50.952;-0.120;2023-07-31T00:37:26;100522.59;;;19.31;91.28
61394;BME280;48555;50.952;-0.120;2023-07-31T00:39:52;100518.59;;;19.26;91.42
61394;BME280;48555;50.952;-0.120;2023-07-31T00:42:17;100508.34;;;19.23;91.74
61394;BME280;48555;50.952;-0.120;2023-07-31T00:44:42;100515.66;;;19.21;92.12
61394;BME280;48555;50.952;-0.120;2023-07-31T00:47:08;100506.53;;;19.24;92.08
61394;BME280;48555;50.952;-0.120;2023-07-31T00:49:33;100515.13;;;19.26;91.92
61394;BME280;48555;50.952;-0.120;2023-07-31T00:51:59;100502.22;;;19.23;92.34
61394;BME280;48555;50.952;-0.120;2023-07-31T00:54:24;100503.56;;;19.27;92.23
61394;BME280;48555;50.952;-0.120;2023-07-31T00:56:50;100501.88;;;19.26;92.12
61394;BME280;48555;50.952;-0.120;2023-07-31T00:59:17;100494.72;;;19.35;91.80
61394;BME280;48555;50.952;-0.120;2023-07-31T01:01:44;100496.72;;;19.33;92.25
61394;BME280;48555;50.952;-0.120;2023-07-31T01:04:10;100485.59;;;19.37;91.83
61394;BME280;48555;50.952;-0.120;2023-07-31T01:06:44;100487.41;;;19.37;92.10
61394;BME280;48555;50.952;-0.120;2023-07-31T01:09:22;100469.53;;;19.39;92.01
61394;BME280;48555;50.952;-0.120;2023-07-31T01:11:57;100473.84;;;19.32;92.34
61394;BME280;48555;50.952;-0.120;2023-07-31T01:14:22;100476.97;;;19.35;92.49
61394;BME280;48555;50.952;-0.120;2023-07-31T01:16:48;100466.22;;;19.37;92.03
61394;BME280;48555;50.952;-0.120;2023-07-31T01:19:15;100469.03;;;19.35;92.69
61394;BME280;48555;50.952;-0.120;2023-07-31T01:24:28;100445.84;;;19.29;93.30
61394;BME280;48555;50.952;-0.120;2023-07-31T01:27:05;100434.28;;;19.30;93.23
61394;BME280;48555;50.952;-0.120;2023-07-31T01:29:45;100437.22;;;19.35;93.08
61394;BME280;48555;50.952;-0.120;2023-07-31T01:32:12;100434.41;;;19.37;93.13
61394;BME280;48555;50.952;-0.120;2023-07-31T01:34:39;100436.09;;;19.29;93.44
61394;BME280;48555;50.952;-0.120;2023-07-31T01:37:05;100420.06;;;19.23;93.95
61394;BME280;48555;50.952;-0.120;2023-07-31T01:39:30;100412.88;;;19.32;93.82
61394;BME280;48555;50.952;-0.120;2023-07-31T01:41:56;100411.53;;;19.36;93.45
61394;BME280;48555;50.952;-0.120;2023-07-31T01:44:21;100410.66;;;19.43;93.21
61394;BME280;48555;50.952;-0.120;2023-07-31T01:46:46;100414.00;;;19.37;93.88
61394;BME280;48555;50.952;-0.120;2023-07-31T01:49:12;100400.22;;;19.42;93.20
61394;BME280;48555;50.952;-0.120;2023-07-31T01:51:37;100384.53;;;19.32;93.90
61394;BME280;48555;50.952;-0.120;2023-07-31T01:54:03;100384.53;;;19.32;93.75
61394;BME280;48555;50.952;-0.120;2023-07-31T01:56:28;100371.13;;;19.34;93.93
61394;BME280;48555;50.952;-0.120;2023-07-31T01:58:54;100381.72;;;19.34;94.37
61394;BME280;48555;50.952;-0.120;2023-07-31T02:01:19;100373.88;;;19.40;94.02
61394;BME280;48555;50.952;-0.120;2023-07-31T02:03:45;100359.63;;;19.41;94.12
61394;BME280;48555;50.952;-0.120;2023-07-31T02:06:10;100368.78;;;19.39;94.41
61394;BME280;48555;50.952;-0.120;2023-07-31T02:08:35;100375.81;;;19.46;93.90
61394;BME280;48555;50.952;-0.120;2023-07-31T02:11:01;100361.16;;;19.36;94.50
61394;BME280;48555;50.952;-0.120;2023-07-31T02:13:26;100364.94;;;19.41;94.65
61394;BME280;48555;50.952;-0.120;2023-07-31T02:15:52;100344.25;;;19.37;95.07
61394;BME280;48555;50.952;-0.120;2023-07-31T02:18:17;100345.25;;;19.36;94.91
61394;BME280;48555;50.952;-0.120;2023-07-31T02:20:43;100341.34;;;19.46;94.41
61394;BME280;48555;50.952;-0.120;2023-07-31T02:23:08;100347.00;;;19.43;94.76
61394;BME280;48555;50.952;-0.120;2023-07-31T02:25:33;100333.22;;;19.48;94.38
61394;BME280;48555;50.952;-0.120;2023-07-31T02:27:59;100343.03;;;19.47;94.53
61394;BME280;48555;50.952;-0.120;2023-07-31T02:30:24;100325.09;;;19.49;94.36
61394;BME280;48555;50.952;-0.120;2023-07-31T02:32:49;100319.50;;;19.44;94.94
61394;BME280;48555;50.952;-0.120;2023-07-31T02:35:15;100307.44;;;19.42;94.83
61394;BME280;48555;50.952;-0.120;2023-07-31T02:37:41;100305.53;;;19.50;94.67
61394;BME280;48555;50.952;-0.120;2023-07-31T02:40:07;100318.31;;;19.47;94.81
61394;BME280;48555;50.952;-0.120;2023-07-31T02:42:33;100311.00;;;19.49;94.77
61394;BME280;48555;50.952;-0.120;2023-07-31T02:44:58;100314.78;;;19.55;94.64
61394;BME280;48555;50.952;-0.120;2023-07-31T02:47:23;100309.53;;;19.46;94.38
61394;BME280;48555;50.952;-0.120;2023-07-31T02:49:49;100314.47;;;19.49;95.01
61394;BME280;48555;50.952;-0.120;2023-07-31T02:52:14;100314.66;;;19.48;95.06
61394;BME280;48555;50.952;-0.120;2023-07-31T02:54:39;100307.69;;;19.47;95.04
61394;BME280;48555;50.952;-0.120;2023-07-31T02:57:05;100307.34;;;19.50;95.15
61394;BME280;48555;50.952;-0.120;2023-07-31T02:59:30;100312.84;;;19.48;95.16
61394;BME280;48555;50.952;-0.120;2023-07-31T03:01:55;100303.59;;;19.44;95.58
61394;BME280;48555;50.952;-0.120;2023-07-31T03:04:21;100294.63;;;19.45;95.48
61394;BME280;48555;50.952;-0.120;2023-07-31T03:06:46;100294.63;;;19.45;95.65
61394;BME280;48555;50.952;-0.120;2023-07-31T03:09:11;100288.50;;;19.45;95.88
61394;BME280;48555;50.952;-0.120;2023-07-31T03:11:37;100291.78;;;19.47;96.03
61394;BME280;48555;50.952;-0.120;2023-07-31T03:14:02;100291.44;;;19.50;96.03
61394;BME280;48555;50.952;-0.120;2023-07-31T03:16:27;100283.16;;;19.53;95.81
61394;BME280;48555;50.952;-0.120;2023-07-31T03:18:54;100273.06;;;19.48;95.85
61394;BME280;48555;50.952;-0.120;2023-07-31T03:21:19;100270.50;;;19.55;95.91
61394;BME280;48555;50.952;-0.120;2023-07-31T03:23:44;100277.72;;;19.46;96.74
61394;BME280;48555;50.952;-0.120;2023-07-31T03:26:10;100273.88;;;19.49;96.68
61394;BME280;48555;50.952;-0.120;2023-07-31T03:28:35;100262.47;;;19.48;96.68
61394;BME280;48555;50.952;-0.120;2023-07-31T03:31:01;100266.59;;;19.51;96.47
61394;BME280;48555;50.952;-0.120;2023-07-31T03:33:26;100265.41;;;19.54;96.25
61394;BME280;48555;50.952;-0.120;2023-07-31T03:35:52;100261.28;;;19.51;96.82
61394;BME280;48555;50.952;-0.120;2023-07-31T03:38:18;100267.75;;;19.48;97.11
61394;BME280;48555;50.952;-0.120;2023-07-31T03:40:43;100262.38;;;19.57;96.63
61394;BME280;48555;50.952;-0.120;2023-07-31T03:43:08;100262.75;;;19.54;96.75
61394;BME280;48555;50.952;-0.120;2023-07-31T03:45:34;100260.72;;;19.56;96.98
61394;BME280;48555;50.952;-0.120;2023-07-31T03:47:59;100239.59;;;19.47;97.07
61394;BME280;48555;50.952;-0.120;2023-07-31T03:50:24;100258.97;;;19.48;97.44
61394;BME280;48555;50.952;-0.120;2023-07-31T03:52:50;100254.88;;;19.45;97.84
61394;BME280;48555;50.952;-0.120;2023-07-31T03:55:15;100252.13;;;19.54;97.16
61394;BME280;48555;50.952;-0.120;2023-07-31T03:57:41;100258.91;;;19.56;97.40
61394;BME280;48555;50.952;-0.120;2023-07-31T04:00:07;100259.44;;;19.51;97.62
61394;BME280;48555;50.952;-0.120;2023-07-31T04:02:32;100261.28;;;19.51;97.85
61394;BME280;48555;50.952;-0.120;2023-07-31T04:04:58;100250.84;;;19.49;98.07
61394;BME280;48555;50.952;-0.120;2023-07-31T04:07:23;100246.63;;;19.55;97.73
61394;BME280;48555;50.952;-0.120;2023-07-31T04:09:49;100235.03;;;19.56;97.76
61394;BME280;48555;50.952;-0.120;2023-07-31T04:12:14;100246.84;;;19.54;97.96
61394;BME280;48555;50.952;-0.120;2023-07-31T04:14:39;100246.03;;;19.53;98.18
61394;BME280;48555;50.952;-0.120;2023-07-31T04:17:05;100232.19;;;19.58;98.21
61394;BME280;48555;50.952;-0.120;2023-07-31T04:19:30;100231.03;;;19.60;97.97
61394;BME280;48555;50.952;-0.120;2023-07-31T04:21:55;100238.16;;;19.60;98.48
61394;BME280;48555;50.952;-0.120;2023-07-31T04:24:21;100239.44;;;19.64;98.22
61394;BME280;48555;50.952;-0.120;2023-07-31T04:26:53;100233.66;;;19.60;98.29
61394;BME280;48555;50.952;-0.120;2023-07-31T04:29:19;100242.03;;;19.72;97.84
61394;BME280;48555;50.952;-0.120;2023-07-31T04:31:44;100227.31;;;19.69;97.76
61394;BME280;48555;50.952;-0.120;2023-07-31T04:34:10;100232.66;;;19.61;98.76
61394;BME280;48555;50.952;-0.120;2023-07-31T04:36:36;100223.06;;;19.60;98.69
61394;BME280;48555;50.952;-0.120;2023-07-31T04:39:02;100234.00;;;19.65;98.47
61394;BME280;48555;50.952;-0.120;2023-07-31T04:41:27;100238.28;;;19.66;98.71
61394;BME280;48555;50.952;-0.120;2023-07-31T04:43:53;100222.81;;;19.70;98.61
61394;BME280;48555;50.952;-0.120;2023-07-31T04:46:18;100233.06;;;19.73;98.66
61394;BME280;48555;50.952;-0.120;2023-07-31T04:48:43;100234.25;;;19.70;98.95
61394;BME280;48555;50.952;-0.120;2023-07-31T04:51:09;100225.91;;;19.73;98.73
61394;BME280;48555;50.952;-0.120;2023-07-31T04:53:35;100231.50;;;19.79;98.43
61394;BME280;48555;50.952;-0.120;2023-07-31T04:56:00;100234.38;;;19.77;98.49
61394;BME280;48555;50.952;-0.120;2023-07-31T04:58:26;100240.50;;;19.78;98.66
61394;BME280;48555;50.952;-0.120;2023-07-31T05:00:51;100251.47;;;19.74;99.03
61394;BME280;48555;50.952;-0.120;2023-07-31T05:03:17;100241.66;;;19.75;98.99
61394;BME280;48555;50.952;-0.120;2023-07-31T05:05:42;100233.19;;;19.80;98.56
61394;BME280;48555;50.952;-0.120;2023-07-31T05:08:07;100242.22;;;19.85;98.29
61394;BME280;48555;50.952;-0.120;2023-07-31T05:10:33;100239.75;;;19.84;98.34
61394;BME280;48555;50.952;-0.120;2023-07-31T05:12:58;100236.28;;;19.83;98.64
61394;BME280;48555;50.952;-0.120;2023-07-31T05:15:23;100235.47;;;19.83;98.35
61394;BME280;48555;50.952;-0.120;2023-07-31T05:17:49;100234.09;;;19.87;98.21
61394;BME280;48555;50.952;-0.120;2023-07-31T05:20:14;100237.38;;;19.89;98.24
61394;BME280;48555;50.952;-0.120;2023-07-31T05:22:40;100234.53;;;19.90;98.15
61394;BME280;48555;50.952;-0.120;2023-07-31T05:25:05;100232.53;;;19.92;97.81
61394;BME280;48555;50.952;-0.120;2023-07-31T05:27:31;100243.31;;;19.91;97.93
61394;BME280;48555;50.952;-0.120;2023-07-31T05:29:56;100236.00;;;19.93;97.87
61394;BME280;48555;50.952;-0.120;2023-07-31T05:32:21;100216.41;;;19.79;97.88
61394;BME280;48555;50.952;-0.120;2023-07-31T05:34:47;100229.88;;;19.92;98.01
61394;BME280;48555;50.952;-0.120;2023-07-31T05:37:13;100229.22;;;19.90;98.17
61394;BME280;48555;50.952;-0.120;2023-07-31T05:39:39;100237.09;;;19.99;97.84
61394;BME280;48555;50.952;-0.120;2023-07-31T05:42:04;100232.69;;;19.91;98.47
61394;BME280;48555;50.952;-0.120;2023-07-31T05:44:30;100226.84;;;19.95;98.42
61394;BME280;48555;50.952;-0.120;2023-07-31T05:46:55;100219.34;;;19.99;98.07
61394;BME280;48555;50.952;-0.120;2023-07-31T05:49:20;100226.50;;;19.99;98.07
61394;BME280;48555;50.952;-0.120;2023-07-31T05:51:46;100219.34;;;19.99;98.00
61394;BME280;48555;50.952;-0.120;2023-07-31T05:54:11;100225.22;;;19.94;98.26
61394;BME280;48555;50.952;-0.120;2023-07-31T05:56:36;100231.34;;;19.95;98.31
61394;BME280;48555;50.952;-0.120;2023-07-31T05:59:02;100225.22;;;19.94;98.28
61394;BME280;48555;50.952;-0.120;2023-07-31T06:01:28;100224.19;;;19.95;97.97
61394;BME280;48555;50.952;-0.120;2023-07-31T06:03:53;100241.75;;;19.96;98.35
61394;BME280;48555;50.952;-0.120;2023-07-31T06:06:18;100233.91;;;20.03;98.18
61394;BME280;48555;50.952;-0.120;2023-07-31T06:08:44;100234.63;;;19.97;98.08
61394;BME280;48555;50.952;-0.120;2023-07-31T06:11:09;100239.22;;;20.03;97.99
61394;BME280;48555;50.952;-0.120;2023-07-31T06:13:35;100237.00;;;20.07;97.94
61394;BME280;48555;50.952;-0.120;2023-07-31T06:16:00;100225.31;;;20.01;98.03
61394;BME280;48555;50.952;-0.120;2023-07-31T06:18:30;100233.25;;;20.01;98.29
61394;BME280;48555;50.952;-0.120;2023-07-31T06:20:55;100242.50;;;20.05;98.50
61394;BME280;48555;50.952;-0.120;2023-07-31T06:23:21;100238.47;;;20.09;98.16
61394;BME280;48555;50.952;-0.120;2023-07-31T06:25:46;100227.00;;;20.09;98.23
61394;BME280;48555;50.952;-0.120;2023-07-31T06:28:11;100240.41;;;20.15;97.87
61394;BME280;48555;50.952;-0.120;2023-07-31T06:30:37;100237.91;;;20.14;97.67
61394;BME280;48555;50.952;-0.120;2023-07-31T06:33:02;100242.59;;;20.12;97.93
61394;BME280;48555;50.952;-0.120;2023-07-31T06:35:27;100237.75;;;20.15;97.89
61394;BME280;48555;50.952;-0.120;2023-07-31T06:37:53;100239.22;;;20.18;97.88
61394;BME280;48555;50.952;-0.120;2023-07-31T06:40:18;100229.84;;;20.22;98.09
61394;BME280;48555;50.952;-0.120;2023-07-31T06:42:44;100236.19;;;20.21;98.06
61394;BME280;48555;50.952;-0.120;2023-07-31T06:45:10;100217.22;;;20.24;98.15
61394;BME280;48555;50.952;-0.120;2023-07-31T06:47:35;100223.81;;;20.28;98.10
61394;BME280;48555;50.952;-0.120;2023-07-31T06:50:00;100220.97;;;20.30;97.50
61394;BME280;48555;50.952;-0.120;2023-07-31T06:52:26;100219.94;;;20.31;97.99
61394;BME280;48555;50.952;-0.120;2023-07-31T06:55:16;100216.03;;;20.27;98.29
61394;BME280;48555;50.952;-0.120;2023-07-31T06:57:45;100206.47;;;20.32;97.85
61394;BME280;48555;50.952;-0.120;2023-07-31T07:00:10;100218.75;;;20.33;98.04
61394;BME280;48555;50.952;-0.120;2023-07-31T07:02:36;100217.09;;;20.32;97.92
61394;BME280;48555;50.952;-0.120;2023-07-31T07:05:01;100214.09;;;20.35;97.99
61394;BME280;48555;50.952;-0.120;2023-07-31T07:07:27;100215.47;;;20.31;98.01
61394;BME280;48555;50.952;-0.120;2023-07-31T07:09:52;100214.72;;;20.37;97.75
61394;BME280;48555;50.952;-0.120;2023-07-31T07:12:18;100211.63;;;20.34;98.05
61394;BME280;48555;50.952;-0.120;2023-07-31T07:14:43;100206.56;;;20.39;97.81
61394;BME280;48555;50.952;-0.120;2023-07-31T07:17:11;100202.72;;;20.41;97.82
61394;BME280;48555;50.952;-0.120;2023-07-31T07:19:40;100199.69;;;20.45;97.68
61394;BME280;48555;50.952;-0.120;2023-07-31T07:22:06;100201.31;;;20.46;97.57
61394;BME280;48555;50.952;-0.120;2023-07-31T07:24:31;100196.47;;;20.49;97.59
61394;BME280;48555;50.952;-0.120;2023-07-31T07:26:56;100187.97;;;20.54;97.85
61394;BME280;48555;50.952;-0.120;2023-07-31T07:29:22;100197.03;;;20.59;97.76
61394;BME280;48555;50.952;-0.120;2023-07-31T07:31:47;100187.22;;;20.60;97.78
61394;BME280;48555;50.952;-0.120;2023-07-31T07:34:13;100204.16;;;20.59;97.66
61394;BME280;48555;50.952;-0.120;2023-07-31T07:36:38;100183.28;;;20.56;97.35
61394;BME280;48555;50.952;-0.120;2023-07-31T07:39:03;100181.63;;;20.55;97.25
61394;BME280;48555;50.952;-0.120;2023-07-31T07:41:29;100181.91;;;20.60;96.95
61394;BME280;48555;50.952;-0.120;2023-07-31T07:43:54;100177.59;;;20.59;96.68
61394;BME280;48555;50.952;-0.120;2023-07-31T07:46:19;100169.25;;;20.62;96.98
61394;BME280;48555;50.952;-0.120;2023-07-31T07:48:44;100182.91;;;20.59;96.90
61394;BME280;48555;50.952;-0.120;2023-07-31T07:51:10;100180.00;;;20.54;96.89
61394;BME280;48555;50.952;-0.120;2023-07-31T07:53:35;100161.03;;;20.57;96.58
61394;BME280;48555;50.952;-0.120;2023-07-31T07:56:01;100165.06;;;20.53;96.53
61394;BME280;48555;50.952;-0.120;2023-07-31T07:58:26;100168.56;;;20.53;96.54
61394;BME280;48555;50.952;-0.120;2023-07-31T08:00:52;100151.13;;;20.51;96.75
61394;BME280;48555;50.952;-0.120;2023-07-31T08:03:17;100156.00;;;20.47;96.96
61394;BME280;48555;50.952;-0.120;2023-07-31T08:05:43;100159.28;;;20.49;97.06
61394;BME280;48555;50.952;-0.120;2023-07-31T08:08:13;100159.38;;;20.56;96.67
61394;BME280;48555;50.952;-0.120;2023-07-31T08:10:39;100151.78;;;20.53;97.07
61394;BME280;48555;50.952;-0.120;2023-07-31T08:13:04;100152.75;;;20.52;96.98
61394;BME280;48555;50.952;-0.120;2023-07-31T08:15:29;100142.81;;;20.54;96.76
61394;BME280;48555;50.952;-0.120;2023-07-31T08:17:55;100132.38;;;20.52;96.79
61394;BME280;48555;50.952;-0.120;2023-07-31T08:20:20;100132.72;;;20.49;96.83
61394;BME280;48555;50.952;-0.120;2023-07-31T08:22:45;100129.88;;;20.51;96.82
61394;BME280;48555;50.952;-0.120;2023-07-31T08:25:11;100128.88;;;20.52;96.70
61394;BME280;48555;50.952;-0.120;2023-07-31T08:27:37;100133.09;;;20.46;97.30
61394;BME280;48555;50.952;-0.120;2023-07-31T08:30:02;100132.53;;;20.51;97.13
61394;BME280;48555;50.952;-0.120;2023-07-31T08:32:28;100130.25;;;20.48;97.41
61394;BME280;48555;50.952;-0.120;2023-07-31T08:34:53;100127.06;;;20.52;97.02
61394;BME280;48555;50.952;-0.120;2023-07-31T08:37:18;100132.38;;;20.52;97.12
61394;BME280;48555;50.952;-0.120;2023-07-31T08:39:43;100124.56;;;20.51;97.39
61394;BME280;48555;50.952;-0.120;2023-07-31T08:42:09;100132.28;;;20.46;98.12
61394;BME280;48555;50.952;-0.120;2023-07-31T08:44:35;100130.34;;;20.54;97.56
61394;BME280;48555;50.952;-0.120;2023-07-31T08:47:01;100125.56;;;20.50;97.35
61394;BME280;48555;50.952;-0.120;2023-07-31T08:49:27;100131.97;;;20.55;97.58
61394;BME280;48555;50.952;-0.120;2023-07-31T08:51:53;100127.50;;;20.56;97.53
61394;BME280;48555;50.952;-0.120;2023-07-31T08:54:20;100131.81;;;20.57;97.22
61394;BME280;48555;50.952;-0.120;2023-07-31T08:56:46;100130.78;;;20.58;97.36
61394;BME280;48555;50.952;-0.120;2023-07-31T08:59:12;100135.47;;;20.56;97.50
61394;BME280;48555;50.952;-0.120;2023-07-31T09:01:43;100123.47;;;20.60;97.40
61394;BME280;48555;50.952;-0.120;2023-07-31T09:04:12;100119.78;;;20.61;97.50
61394;BME280;48555;50.952;-0.120;2023-07-31T09:06:39;100126.28;;;20.58;97.50
61394;BME280;48555;50.952;-0.120;2023-07-31T09:09:05;100126.28;;;20.58;97.44
61394;BME280;48555;50.952;-0.120;2023-07-31T09:11:30;100122.00;;;20.57;97.31
61394;BME280;48555;50.952;-0.120;2023-07-31T09:13:57;100120.16;;;20.58;97.54
61394;BME280;48555;50.952;-0.120;2023-07-31T09:16:29;100116.25;;;20.54;97.62
61394;BME280;48555;50.952;-0.120;2023-07-31T09:18:58;100120.38;;;20.56;97.52
61394;BME280;48555;50.952;-0.120;2023-07-31T09:21:24;100120.38;;;20.56;97.66
61394;BME280;48555;50.952;-0.120;2023-07-31T09:23:51;100113.94;;;20.51;97.64
61394;BME280;48555;50.952;-0.120;2023-07-31T09:26:31;100120.63;;;20.47;97.95
61394;BME280;48555;50.952;-0.120;2023-07-31T09:28:58;100114.72;;;20.45;97.81
61394;BME280;48555;50.952;-0.120;2023-07-31T09:31:42;100109.97;;;20.40;98.42
61394;BME280;48555;50.952;-0.120;2023-07-31T09:34:08;100115.78;;;20.50;97.84
61394;BME280;48555;50.952;-0.120;2023-07-31T09:36:41;100099.66;;;20.52;97.67
61394;BME280;48555;50.952;-0.120;2023-07-31T09:39:09;100093.34;;;20.53;97.38
61394;BME280;48555;50.952;-0.120;2023-07-31T09:41:44;100097.38;;;20.49;97.71
61394;BME280;48555;50.952;-0.120;2023-07-31T09:44:09;100103.72;;;20.48;97.62
61394;BME280;48555;50.952;-0.120;2023-07-31T09:46:36;100104.91;;;20.45;97.69
61394;BME280;48555;50.952;-0.120;2023-07-31T09:49:11;100098.56;;;20.46;97.81
61394;BME280;48555;50.952;-0.120;2023-07-31T09:51:37;100085.72;;;20.50;97.52
61394;BME280;48555;50.952;-0.120;2023-07-31T09:54:14;100076.59;;;20.52;97.72
61394;BME280;48555;50.952;-0.120;2023-07-31T09:56:44;100094.63;;;20.57;97.50
61394;BME280;48555;50.952;-0.120;2023-07-31T09:59:12;100106.06;;;20.57;97.63
61394;BME280;48555;50.952;-0.120;2023-07-31T10:01:40;100087.28;;;20.59;97.39
61394;BME280;48555;50.952;-0.120;2023-07-31T10:04:07;100076.22;;;20.55;97.39
61394;BME280;48555;50.952;-0.120;2023-07-31T10:06:34;100078.94;;;20.62;97.12
61394;BME280;48555;50.952;-0.120;2023-07-31T10:09:02;100078.78;;;20.70;97.18
61394;BME280;48555;50.952;-0.120;2023-07-31T10:11:30;100059.63;;;20.75;97.43
61394;BME280;48555;50.952;-0.120;2023-07-31T10:13:56;100061.69;;;20.79;97.16
61394;BME280;48555;50.952;-0.120;2023-07-31T10:16:22;100076.88;;;20.85;97.18
61394;BME280;48555;50.952;-0.120;2023-07-31T10:18:48;100065.47;;;20.92;97.06
61394;BME280;48555;50.952;-0.120;2023-07-31T10:21:15;100060.75;;;20.94;96.72
61394;BME280;48555;50.952;-0.120;2023-07-31T10:23:40;100070.41;;;20.95;96.93
61394;BME280;48555;50.952;-0.120;2023-07-31T10:26:08;100073.91;;;21.02;96.84
61394;BME280;48555;50.952;-0.120;2023-07-31T10:28:36;100071.50;;;21.07;96.72
61394;BME280;48555;50.952;-0.120;2023-07-31T10:31:03;100060.66;;;21.08;96.48
61394;BME280;48555;50.952;-0.120;2023-07-31T10:33:29;100065.19;;;21.15;96.54
61394;BME280;48555;50.952;-0.120;2023-07-31T10:36:16;100065.81;;;21.17;96.30
61394;BME280;48555;50.952;-0.120;2023-07-31T10:38:42;100062.78;;;21.20;95.97
61394;BME280;48555;50.952;-0.120;2023-07-31T10:41:09;100072.84;;;21.24;95.72
61394;BME280;48555;50.952;-0.120;2023-07-31T10:43:36;100086.91;;;21.18;95.71
61394;BME280;48555;50.952;-0.120;2023-07-31T10:46:11;100083.88;;;21.21;95.17
61394;BME280;48555;50.952;-0.120;2023-07-31T10:48:39;100084.47;;;21.23;94.93
61394;BME280;48555;50.952;-0.120;2023-07-31T10:51:08;100086.53;;;21.21;94.61
61394;BME280;48555;50.952;-0.120;2023-07-31T10:53:34;100082.03;;;21.22;94.26
61394;BME280;48555;50.952;-0.120;2023-07-31T10:56:01;100085.31;;;21.24;94.35
61394;BME280;48555;50.952;-0.120;2023-07-31T10:58:28;100083.25;;;21.26;94.11
61394;BME280;48555;50.952;-0.120;2023-07-31T11:00:58;100082.25;;;21.27;94.07
61394;BME280;48555;50.952;-0.120;2023-07-31T11:06:13;100079.00;;;21.31;93.79
61394;BME280;48555;50.952;-0.120;2023-07-31T11:08:47;100071.22;;;21.30;93.68
61394;BME280;48555;50.952;-0.120;2023-07-31T11:11:14;100075.34;;;21.32;93.66
61394;BME280;48555;50.952;-0.120;2023-07-31T11:16:06;100078.75;;;21.26;93.71
61394;BME280;48555;50.952;-0.120;2023-07-31T11:18:31;100084.06;;;21.26;93.47
61394;BME280;48555;50.952;-0.120;2023-07-31T11:20:57;100076.28;;;21.18;93.21
61394;BME280;48555;50.952;-0.120;2023-07-31T11:23:23;100065.00;;;21.16;93.20
61394;BME280;48555;50.952;-0.120;2023-07-31T11:25:49;100051.72;;;21.16;93.46
61394;BME280;48555;50.952;-0.120;2023-07-31T11:28:16;100061.97;;;21.19;93.69
61394;BME280;48555;50.952;-0.120;2023-07-31T11:30:43;100061.97;;;21.19;94.19
61394;BME280;48555;50.952;-0.120;2023-07-31T11:33:10;100055.22;;;21.23;93.87
61394;BME280;48555;50.952;-0.120;2023-07-31T11:35:42;100038.69;;;21.28;93.89
61394;BME280;48555;50.952;-0.120;2023-07-31T11:38:09;100032.03;;;21.39;94.43
61394;BME280;48555;50.952;-0.120;2023-07-31T11:40:44;100028.56;;;21.45;94.98
61394;BME280;48555;50.952;-0.120;2023-07-31T11:43:10;100049.88;;;21.51;94.83
61394;BME280;48555;50.952;-0.120;2023-07-31T11:45:41;100055.63;;;21.55;95.07
61394;BME280;48555;50.952;-0.120;2023-07-31T11:48:07;100053.59;;;21.57;94.84
61394;BME280;48555;50.952;-0.120;2023-07-31T11:50:35;100056.88;;;21.59;94.28
61394;BME280;48555;50.952;-0.120;2023-07-31T11:53:07;100060.75;;;21.57;94.03
61394;BME280;48555;50.952;-0.120;2023-07-31T11:55:33;100068.53;;;21.58;93.87
61394;BME280;48555;50.952;-0.120;2023-07-31T11:57:59;100071.41;;;21.57;93.59
61394;BME280;48555;50.952;-0.120;2023-07-31T12:00:25;100071.16;;;21.51;93.17
61394;BME280;48555;50.952;-0.120;2023-07-31T12:02:51;100061.34;;;21.52;92.69
61394;BME280;48555;50.952;-0.120;2023-07-31T12:05:17;100066.47;;;21.53;92.48
61394;BME280;48555;50.952;-0.120;2023-07-31T12:07:47;100082.63;;;21.52;92.45
61394;BME280;48555;50.952;-0.120;2023-07-31T12:10:30;100070.09;;;21.46;92.41
61394;BME280;48555;50.952;-0.120;2023-07-31T12:13:05;100056.81;;;21.46;92.21
61394;BME280;48555;50.952;-0.120;2023-07-31T12:15:35;100064.78;;;21.46;92.69
61394;BME280;48555;50.952;-0.120;2023-07-31T12:18:15;100051.88;;;21.43;92.47
61394;BME280;48555;50.952;-0.120;2023-07-31T12:20:49;100036.75;;;21.43;92.32
61394;BME280;48555;50.952;-0.120;2023-07-31T12:23:20;100036.34;;;21.46;92.39
61394;BME280;48555;50.952;-0.120;2023-07-31T12:26:15;100032.69;;;21.47;92.54
61394;BME280;48555;50.952;-0.120;2023-07-31T12:28:42;100023.66;;;21.48;92.66
61394;BME280;48555;50.952;-0.120;2023-07-31T12:31:18;100033.50;;;21.48;92.59
61394;BME280;48555;50.952;-0.120;2023-07-31T12:33:45;100024.31;;;21.50;92.48
61394;BME280;48555;50.952;-0.120;2023-07-31T12:36:13;100028.38;;;21.53;92.25
61394;BME280;48555;50.952;-0.120;2023-07-31T12:38:39;100016.31;;;21.50;92.44
61394;BME280;48555;50.952;-0.120;2023-07-31T12:41:05;100010.38;;;21.55;92.42
61394;BME280;48555;50.952;-0.120;2023-07-31T12:43:32;100012.41;;;21.53;92.27
61394;BME280;48555;50.952;-0.120;2023-07-31T12:45:57;100010.38;;;21.55;92.32